Terminal Aerodrome Forecast
Issued by NWS Boston, MA

Home | Current Version | Previous Version | Text Only | Print | Product List | Glossary On
Versions: 1 2 3 4 5 6 7 8 9 10 11 12 13 14 15 16 17 18 19 20 21 22 23 24 25 26 27 28 29 30 31 32 33 34 35 36 37 38 39 40 41 42 43 44 45 46 47 48 49 50
000
FTUS41 KBOX 011120
TAFBDL
TAF
KBDL 011120Z 0112/0218 22005KT P6SM VCSH BKN060
     FM011500 24007KT P6SM SCT060 BKN080
     FM011800 26012KT P6SM VCSH BKN060
     FM012200 30010KT P6SM FEW050 SCT060
     FM020000 VRB03KT P6SM SCT250
     FM021700 23007KT P6SM SCT250=

USA.gov is the U.S. government's official web portal to all federal, state and local government web resources and services.